CheckWX is a tool to help pilots better visualize weather data.  It is not intended as a substitute for an official pre-flight weather briefing.

13:42:31 UTC

9V9 METAR
Chamberlain Municipal Airport
Chamberlain, South Dakota, USA
Current

28 mins ago

K9V9 201315Z AUTO 09014G23KT 10SM BKN080 BKN090 OVC110 17/16 A2985 RMK AO2 T01710156
Observed
Jul-20 @ 13:15 UTC
Wind
  • 090° at 14 KTS
  • Gusting to 23 KTS
Visibility
10 SM
Flight Rules
VFR
Cloud Levels
  • Broken at 8,000' AGL
  • Broken at 9,000' AGL
  • Overcast at 11,000' AGL
Temperature
17°C / 63°F
Dewpoint
16°C / 61°F
Humidity
94%
Altimeter
29.85" Hg
Pressure
1010.82 hPa
Previous

48 mins ago

K9V9 201255Z AUTO 08014G25KT 10SM OVC080 17/15 A2984 RMK AO2 T01660150
Observed
Jul-20 @ 12:55 UTC
Wind
  • 080° at 14 KTS
  • Gusting to 25 KTS
Visibility
10 SM
Flight Rules
VFR
Cloud Levels
  • Overcast at 8,000' AGL
Temperature
17°C / 63°F
Dewpoint
15°C / 59°F
Humidity
88%
Altimeter
29.84" Hg
Pressure
1010.52 hPa
Previous

1 hour ago

K9V9 201235Z AUTO 06019G26KT 10SM SCT080 16/15 A2983 RMK AO2 T01610154
Observed
Jul-20 @ 12:35 UTC
Wind
  • 060° at 19 KTS
  • Gusting to 26 KTS
Visibility
10 SM
Flight Rules
VFR
Cloud Levels
  • Scattered at 8,000' AGL
Temperature
16°C / 61°F
Dewpoint
15°C / 59°F
Humidity
94%
Altimeter
29.83" Hg
Pressure
1010.12 hPa